sensor_id;sensor_type;location;lat;lon;timestamp;pressure;altitude;pressure_sealevel;temperature;humidity
49583;BME280;36329;48.816;44.624;2024-02-21T00:00:30;102639;;;-5.5;83.9
49583;BME280;36329;48.816;44.624;2024-02-21T00:03:32;102643.01;;;-5.7;84.6
49583;BME280;36329;48.816;44.624;2024-02-21T00:06:34;102643.99;;;-5.4;84.8
49583;BME280;36329;48.816;44.624;2024-02-21T00:09:36;102637;;;-5.7;85
49583;BME280;36329;48.816;44.624;2024-02-21T00:12:38;102631.01;;;-5.8;86.1
49583;BME280;36329;48.816;44.624;2024-02-21T00:15:41;102634;;;-5.8;87.3
49583;BME280;36329;48.816;44.624;2024-02-21T00:18:43;102630.01;;;-6;87.1
49583;BME280;36329;48.816;44.624;2024-02-21T00:21:46;102630.01;;;-6.1;87.6
49583;BME280;36329;48.816;44.624;2024-02-21T00:24:48;102629;;;-5.8;87
49583;BME280;36329;48.816;44.624;2024-02-21T00:27:50;102624;;;-5.6;85.1
49583;BME280;36329;48.816;44.624;2024-02-21T00:30:52;102623;;;-5.6;83.7
49583;BME280;36329;48.816;44.624;2024-02-21T00:33:54;102618.01;;;-5.6;84
49583;BME280;36329;48.816;44.624;2024-02-21T00:36:56;102619.99;;;-5.9;85.1
49583;BME280;36329;48.816;44.624;2024-02-21T00:39:58;102621;;;-6;85.7
49583;BME280;36329;48.816;44.624;2024-02-21T00:43:00;102626;;;-6;85.6
49583;BME280;36329;48.816;44.624;2024-02-21T00:46:02;102623;;;-5.8;84
49583;BME280;36329;48.816;44.624;2024-02-21T00:49:04;102624;;;-6.2;84.3
49583;BME280;36329;48.816;44.624;2024-02-21T00:52:06;102629;;;-6.3;86.1
49583;BME280;36329;48.816;44.624;2024-02-21T00:55:09;102619.99;;;-5.9;86
49583;BME280;36329;48.816;44.624;2024-02-21T00:58:11;102623;;;-5.8;84.6
49583;BME280;36329;48.816;44.624;2024-02-21T01:01:13;102627;;;-5.9;84.1
49583;BME280;36329;48.816;44.624;2024-02-21T01:04:15;102627;;;-5.8;82.7
49583;BME280;36329;48.816;44.624;2024-02-21T01:07:17;102629;;;-5.9;82.7
49583;BME280;36329;48.816;44.624;2024-02-21T01:10:19;102631.01;;;-6.2;83.5
49583;BME280;36329;48.816;44.624;2024-02-21T01:13:22;102632.99;;;-6.2;83.8
49583;BME280;36329;48.816;44.624;2024-02-21T01:16:25;102627;;;-6.5;83.3
49583;BME280;36329;48.816;44.624;2024-02-21T01:19:27;102627;;;-6.3;83.9
49583;BME280;36329;48.816;44.624;2024-02-21T01:22:29;102630.01;;;-5.9;83.4
49583;BME280;36329;48.816;44.624;2024-02-21T01:25:31;102629;;;-6;83
49583;BME280;36329;48.816;44.624;2024-02-21T01:28:34;102631.01;;;-5.7;82.6
49583;BME280;36329;48.816;44.624;2024-02-21T01:31:36;102630.01;;;-6.1;82
49583;BME280;36329;48.816;44.624;2024-02-21T01:34:38;102636;;;-6;81.6
49583;BME280;36329;48.816;44.624;2024-02-21T01:37:40;102639;;;-6;81.2
49583;BME280;36329;48.816;44.624;2024-02-21T01:40:42;102637;;;-6.1;81.1
49583;BME280;36329;48.816;44.624;2024-02-21T01:43:44;102637;;;-6.3;82.7
49583;BME280;36329;48.816;44.624;2024-02-21T01:46:47;102638;;;-6.3;81.7
49583;BME280;36329;48.816;44.624;2024-02-21T01:49:49;102642.01;;;-6.5;82
49583;BME280;36329;48.816;44.624;2024-02-21T01:52:51;102644.99;;;-6.6;82.3
49583;BME280;36329;48.816;44.624;2024-02-21T01:55:54;102640;;;-6.4;82.8
49583;BME280;36329;48.816;44.624;2024-02-21T01:58:56;102642.01;;;-6.5;81.5
49583;BME280;36329;48.816;44.624;2024-02-21T02:01:58;102649;;;-6.6;81.3
49583;BME280;36329;48.816;44.624;2024-02-21T02:05:00;102646;;;-6.2;79.3
49583;BME280;36329;48.816;44.624;2024-02-21T02:08:03;102648;;;-6.4;77.8
49583;BME280;36329;48.816;44.624;2024-02-21T02:11:06;102644.99;;;-6.2;79.6
49583;BME280;36329;48.816;44.624;2024-02-21T02:14:08;102647;;;-6.4;79.8
49583;BME280;36329;48.816;44.624;2024-02-21T02:17:10;102650;;;-6.4;80.6
49583;BME280;36329;48.816;44.624;2024-02-21T02:20:13;102646;;;-6.4;79.9
49583;BME280;36329;48.816;44.624;2024-02-21T02:23:19;102648;;;-6.3;78.9
49583;BME280;36329;48.816;44.624;2024-02-21T02:26:22;102647;;;-6.4;79.2
49583;BME280;36329;48.816;44.624;2024-02-21T02:29:24;102642.01;;;-6.3;78
49583;BME280;36329;48.816;44.624;2024-02-21T02:32:26;102636;;;-6.3;79.7
49583;BME280;36329;48.816;44.624;2024-02-21T02:35:28;102643.01;;;-6.3;79.2
49583;BME280;36329;48.816;44.624;2024-02-21T02:38:30;102647;;;-6.7;81.6
49583;BME280;36329;48.816;44.624;2024-02-21T02:41:34;102644.99;;;-6.5;81.4
49583;BME280;36329;48.816;44.624;2024-02-21T02:44:37;102650;;;-6.4;81.2
49583;BME280;36329;48.816;44.624;2024-02-21T02:47:40;102651;;;-6.5;80.7
49583;BME280;36329;48.816;44.624;2024-02-21T02:50:42;102650;;;-6.9;80.6
49583;BME280;36329;48.816;44.624;2024-02-21T02:53:44;102655.01;;;-6.7;80.4
49583;BME280;36329;48.816;44.624;2024-02-21T02:56:46;102649;;;-6.5;79.2
49583;BME280;36329;48.816;44.624;2024-02-21T02:59:48;102660;;;-6.4;79.4
49583;BME280;36329;48.816;44.624;2024-02-21T03:02:50;102664;;;-6.5;78.9
49583;BME280;36329;48.816;44.624;2024-02-21T03:05:53;102653;;;-6.4;79.2
49583;BME280;36329;48.816;44.624;2024-02-21T03:08:55;102660;;;-6.2;80
49583;BME280;36329;48.816;44.624;2024-02-21T03:11:57;102656.99;;;-6.6;79.6
49583;BME280;36329;48.816;44.624;2024-02-21T03:14:59;102665;;;-6.8;80.2
49583;BME280;36329;48.816;44.624;2024-02-21T03:18:01;102671;;;-6.8;79.4
49583;BME280;36329;48.816;44.624;2024-02-21T03:21:03;102671;;;-6.7;79.3
49583;BME280;36329;48.816;44.624;2024-02-21T03:24:06;102676;;;-6.8;78.8
49583;BME280;36329;48.816;44.624;2024-02-21T03:27:09;102680.01;;;-6.6;77.5
49583;BME280;36329;48.816;44.624;2024-02-21T03:30:12;102677;;;-6.7;76.8
49583;BME280;36329;48.816;44.624;2024-02-21T03:33:14;102681.99;;;-6.5;75.9
49583;BME280;36329;48.816;44.624;2024-02-21T03:36:16;102677;;;-6.4;75.2
49583;BME280;36329;48.816;44.624;2024-02-21T03:39:18;102679;;;-6.4;74.4
49583;BME280;36329;48.816;44.624;2024-02-21T03:42:21;102676;;;-6.8;76.2
49583;BME280;36329;48.816;44.624;2024-02-21T03:45:23;102677;;;-6.6;75.9
49583;BME280;36329;48.816;44.624;2024-02-21T03:48:25;102679;;;-6.6;76.1
49583;BME280;36329;48.816;44.624;2024-02-21T03:51:27;102681.99;;;-7;74.9
49583;BME280;36329;48.816;44.624;2024-02-21T03:54:29;102682.99;;;-7.2;76.8
49583;BME280;36329;48.816;44.624;2024-02-21T03:57:31;102692.01;;;-7.3;77
49583;BME280;36329;48.816;44.624;2024-02-21T04:00:33;102699;;;-7.2;78.3
49583;BME280;36329;48.816;44.624;2024-02-21T04:03:35;102700;;;-6.9;77.4
49583;BME280;36329;48.816;44.624;2024-02-21T04:06:45;102707.99;;;-6.8;75.6
49583;BME280;36329;48.816;44.624;2024-02-21T04:09:48;102703;;;-6.7;74.8
49583;BME280;36329;48.816;44.624;2024-02-21T04:12:50;102707.99;;;-6.7;75.6
49583;BME280;36329;48.816;44.624;2024-02-21T04:15:52;102707.99;;;-6.9;75.7
49583;BME280;36329;48.816;44.624;2024-02-21T04:18:54;102714;;;-6.8;76.1
49583;BME280;36329;48.816;44.624;2024-02-21T04:21:56;102713;;;-7.2;76.4
49583;BME280;36329;48.816;44.624;2024-02-21T04:25:00;102709;;;-7.2;77
49583;BME280;36329;48.816;44.624;2024-02-21T04:28:02;102719.99;;;-7.3;76.4
49583;BME280;36329;48.816;44.624;2024-02-21T04:31:04;102723;;;-7.3;76.4
49583;BME280;36329;48.816;44.624;2024-02-21T04:34:06;102731.01;;;-7;76.2
49583;BME280;36329;48.816;44.624;2024-02-21T04:37:09;102735;;;-6.8;74.7
49583;BME280;36329;48.816;44.624;2024-02-21T04:40:11;102736;;;-6.7;74
49583;BME280;36329;48.816;44.624;2024-02-21T04:43:13;102737;;;-7.1;73.1
49583;BME280;36329;48.816;44.624;2024-02-21T04:46:15;102747;;;-7.1;74.2
49583;BME280;36329;48.816;44.624;2024-02-21T04:49:17;102742.01;;;-7.2;73.8
49583;BME280;36329;48.816;44.624;2024-02-21T04:52:19;102738;;;-6.9;74.7
49583;BME280;36329;48.816;44.624;2024-02-21T04:55:21;102736;;;-7.1;75.9
49583;BME280;36329;48.816;44.624;2024-02-21T04:58:23;102740;;;-7.4;77.6
49583;BME280;36329;48.816;44.624;2024-02-21T05:01:25;102744.99;;;-7.4;78.4
49583;BME280;36329;48.816;44.624;2024-02-21T05:04:28;102748;;;-7.2;80.3
49583;BME280;36329;48.816;44.624;2024-02-21T05:07:30;102756.99;;;-6.7;77.4
49583;BME280;36329;48.816;44.624;2024-02-21T05:10:33;102751;;;-6.8;75.1
49583;BME280;36329;48.816;44.624;2024-02-21T05:13:35;102751;;;-6.8;73.4
49583;BME280;36329;48.816;44.624;2024-02-21T05:16:38;102747;;;-6.7;72.2
49583;BME280;36329;48.816;44.624;2024-02-21T05:19:41;102748;;;-6.8;71.8
49583;BME280;36329;48.816;44.624;2024-02-21T05:22:43;102753;;;-7.1;71.2
49583;BME280;36329;48.816;44.624;2024-02-21T05:25:45;102759;;;-6.9;73.7
49583;BME280;36329;48.816;44.624;2024-02-21T05:28:47;102757.99;;;-6.6;72.5
49583;BME280;36329;48.816;44.624;2024-02-21T05:31:56;102746;;;-5.9;70.3
49583;BME280;36329;48.816;44.624;2024-02-21T05:35:00;102755.01;;;-5.7;69.1
49583;BME280;36329;48.816;44.624;2024-02-21T05:38:02;102756.01;;;-5.4;68.5
49583;BME280;36329;48.816;44.624;2024-02-21T05:41:04;102753;;;-5.3;66.6
49583;BME280;36329;48.816;44.624;2024-02-21T05:44:06;102755.01;;;-4.8;64.8
49583;BME280;36329;48.816;44.624;2024-02-21T05:47:09;102756.01;;;-4.4;62.6
49583;BME280;36329;48.816;44.624;2024-02-21T05:50:11;102768.99;;;-5;62.7
49583;BME280;36329;48.816;44.624;2024-02-21T05:53:13;102769.99;;;-5.2;63.7
49583;BME280;36329;48.816;44.624;2024-02-21T05:56:15;102768.99;;;-5.6;63.9
49583;BME280;36329;48.816;44.624;2024-02-21T05:59:17;102767.01;;;-5.2;64
49583;BME280;36329;48.816;44.624;2024-02-21T06:02:19;102765;;;-5.2;63.9
49583;BME280;36329;48.816;44.624;2024-02-21T06:05:22;102767.01;;;-5;63.7
49583;BME280;36329;48.816;44.624;2024-02-21T06:08:24;102771;;;-4.8;62.4
49583;BME280;36329;48.816;44.624;2024-02-21T06:11:26;102765;;;-4.8;61.3
49583;BME280;36329;48.816;44.624;2024-02-21T06:14:29;102768.99;;;-4.7;60.9
49583;BME280;36329;48.816;44.624;2024-02-21T06:17:31;102768.01;;;-4.9;60.3
49583;BME280;36329;48.816;44.624;2024-02-21T06:20:33;102773;;;-4.6;59.5
49583;BME280;36329;48.816;44.624;2024-02-21T06:23:37;102768.99;;;-4.3;59.2
49583;BME280;36329;48.816;44.624;2024-02-21T06:26:40;102766;;;-4.4;58.5
49583;BME280;36329;48.816;44.624;2024-02-21T06:29:42;102760;;;-4.3;58.7
49583;BME280;36329;48.816;44.624;2024-02-21T06:32:45;102753;;;-3.8;57.9
49583;BME280;36329;48.816;44.624;2024-02-21T06:35:47;102752;;;-4;56.9
49583;BME280;36329;48.816;44.624;2024-02-21T06:38:50;102763;;;-3.8;57.3
49583;BME280;36329;48.816;44.624;2024-02-21T06:41:52;102766;;;-3.7;57.4
49583;BME280;36329;48.816;44.624;2024-02-21T06:44:54;102768.99;;;-3.9;57.4
49583;BME280;36329;48.816;44.624;2024-02-21T06:47:56;102773;;;-3.9;58.9
49583;BME280;36329;48.816;44.624;2024-02-21T06:50:58;102776;;;-3.5;57.1
49583;BME280;36329;48.816;44.624;2024-02-21T06:54:00;102766;;;-3;55.6
49583;BME280;36329;48.816;44.624;2024-02-21T06:57:03;102766;;;-2.4;54.2
49583;BME280;36329;48.816;44.624;2024-02-21T07:00:05;102773;;;-2.2;52.5
49583;BME280;36329;48.816;44.624;2024-02-21T07:03:08;102773;;;-1.9;52.4
49583;BME280;36329;48.816;44.624;2024-02-21T07:06:10;102767.01;;;-1.8;51.4
49583;BME280;36329;48.816;44.624;2024-02-21T07:09:13;102765;;;-1.9;51.6
49583;BME280;36329;48.816;44.624;2024-02-21T07:12:15;102773;;;-1.9;50.6
49583;BME280;36329;48.816;44.624;2024-02-21T07:15:17;102776;;;-1.8;48.9
49583;BME280;36329;48.816;44.624;2024-02-21T07:18:19;102776;;;-2.5;50
49583;BME280;36329;48.816;44.624;2024-02-21T07:21:21;102768.99;;;-2.5;50.4
49583;BME280;36329;48.816;44.624;2024-02-21T07:24:23;102767.01;;;-2;50.1
49583;BME280;36329;48.816;44.624;2024-02-21T07:27:25;102765;;;-2.5;49.6
49583;BME280;36329;48.816;44.624;2024-02-21T07:30:27;102761;;;-2.6;49.9
49583;BME280;36329;48.816;44.624;2024-02-21T07:33:29;102764;;;-2.5;49.3
49583;BME280;36329;48.816;44.624;2024-02-21T07:36:32;102760;;;-2.7;49.9
49583;BME280;36329;48.816;44.624;2024-02-21T07:39:36;102753;;;-2.8;49.5
49583;BME280;36329;48.816;44.624;2024-02-21T07:42:38;102750;;;-2.3;49.2
49583;BME280;36329;48.816;44.624;2024-02-21T07:45:40;102748;;;-1.9;47.8
49583;BME280;36329;48.816;44.624;2024-02-21T07:48:42;102755.01;;;-1.7;48.1
49583;BME280;36329;48.816;44.624;2024-02-21T07:51:44;102751;;;-2.6;49.6
49583;BME280;36329;48.816;44.624;2024-02-21T07:54:46;102743.99;;;-2.5;48.8
49583;BME280;36329;48.816;44.624;2024-02-21T07:57:48;102744.99;;;-2.3;48.7
49583;BME280;36329;48.816;44.624;2024-02-21T08:00:50;102738;;;-1.6;46.9
49583;BME280;36329;48.816;44.624;2024-02-21T08:03:52;102737;;;-1.8;48
49583;BME280;36329;48.816;44.624;2024-02-21T08:06:55;102742.01;;;-2.3;48.8
49583;BME280;36329;48.816;44.624;2024-02-21T08:09:57;102744.99;;;-2.8;50.1
49583;BME280;36329;48.816;44.624;2024-02-21T08:13:00;102742.01;;;-3;50.1
49583;BME280;36329;48.816;44.624;2024-02-21T08:16:02;102735;;;-2.5;49.9
49583;BME280;36329;48.816;44.624;2024-02-21T08:19:04;102737;;;-0.9;46.8
49583;BME280;36329;48.816;44.624;2024-02-21T08:22:06;102742.01;;;0.4;44
49583;BME280;36329;48.816;44.624;2024-02-21T08:25:08;102738;;;0.3;43.2
49583;BME280;36329;48.816;44.624;2024-02-21T08:28:10;102744.99;;;0.9;41.8
49583;BME280;36329;48.816;44.624;2024-02-21T08:31:18;102743.01;;;0.3;42.7
49583;BME280;36329;48.816;44.624;2024-02-21T08:34:21;102734;;;0.9;42
49583;BME280;36329;48.816;44.624;2024-02-21T08:37:23;102728;;;1.4;40.6
49583;BME280;36329;48.816;44.624;2024-02-21T08:40:25;102737;;;2.1;39.7
49583;BME280;36329;48.816;44.624;2024-02-21T08:43:27;102736;;;2.3;39.1
49583;BME280;36329;48.816;44.624;2024-02-21T08:46:29;102741;;;3.5;38.2
49583;BME280;36329;48.816;44.624;2024-02-21T08:49:32;102743.01;;;4;37.5
49583;BME280;36329;48.816;44.624;2024-02-21T08:52:34;102744.99;;;4.2;36.2
49583;BME280;36329;48.816;44.624;2024-02-21T08:55:37;102741;;;4.3;37.1
49583;BME280;36329;48.816;44.624;2024-02-21T08:58:39;102734;;;4.1;36.9
49583;BME280;36329;48.816;44.624;2024-02-21T09:01:42;102739;;;3.6;37.9
49583;BME280;36329;48.816;44.624;2024-02-21T09:04:44;102734;;;4.4;37.1
49583;BME280;36329;48.816;44.624;2024-02-21T09:07:46;102735;;;3.7;36.4
49583;BME280;36329;48.816;44.624;2024-02-21T09:10:48;102735;;;2.6;38
49583;BME280;36329;48.816;44.624;2024-02-21T09:13:51;102728;;;2.9;37.8
49583;BME280;36329;48.816;44.624;2024-02-21T09:16:53;102727;;;3.1;38.1
49583;BME280;36329;48.816;44.624;2024-02-21T09:19:55;102725;;;3.4;37.6
49583;BME280;36329;48.816;44.624;2024-02-21T09:22:57;102715;;;2.5;39.1
49583;BME280;36329;48.816;44.624;2024-02-21T09:25:59;102704;;;2.1;39.3
49583;BME280;36329;48.816;44.624;2024-02-21T09:29:01;102706.01;;;2.7;39.1
49583;BME280;36329;48.816;44.624;2024-02-21T09:32:03;102711;;;2.7;39
49583;BME280;36329;48.816;44.624;2024-02-21T09:35:07;102714;;;3.5;37.8
49583;BME280;36329;48.816;44.624;2024-02-21T09:38:09;102717.01;;;3.5;37.5
49583;BME280;36329;48.816;44.624;2024-02-21T09:41:15;102717.01;;;3.5;37.6
49583;BME280;36329;48.816;44.624;2024-02-21T09:44:19;102712;;;3.3;37.9
49583;BME280;36329;48.816;44.624;2024-02-21T09:47:24;102704;;;2.2;39.2
49583;BME280;36329;48.816;44.624;2024-02-21T09:50:28;102715;;;2.3;40
49583;BME280;36329;48.816;44.624;2024-02-21T09:53:31;102715;;;2.5;39.5
49583;BME280;36329;48.816;44.624;2024-02-21T09:56:34;102713;;;1.5;41.4
49583;BME280;36329;48.816;44.624;2024-02-21T09:59:37;102716;;;0.9;42.2
49583;BME280;36329;48.816;44.624;2024-02-21T10:02:39;102713;;;0.9;43.2
49583;BME280;36329;48.816;44.624;2024-02-21T10:05:48;102716;;;1.4;42.5
49583;BME280;36329;48.816;44.624;2024-02-21T10:08:52;102715;;;1.1;42.5
49583;BME280;36329;48.816;44.624;2024-02-21T10:11:55;102717.01;;;0.7;43.1
49583;BME280;36329;48.816;44.624;2024-02-21T10:15:00;102713;;;0.5;44.5
49583;BME280;36329;48.816;44.624;2024-02-21T10:18:04;102706.99;;;0.4;44.9
49583;BME280;36329;48.816;44.624;2024-02-21T10:21:07;102706.99;;;0.3;44.6
49583;BME280;36329;48.816;44.624;2024-02-21T10:24:10;102702;;;0.4;46.1
49583;BME280;36329;48.816;44.624;2024-02-21T10:27:13;102700;;;0.1;46.6
49583;BME280;36329;48.816;44.624;2024-02-21T10:30:15;102704;;;-0.1;47.3
49583;BME280;36329;48.816;44.624;2024-02-21T10:33:17;102703;;;-0.2;47.1
49583;BME280;36329;48.816;44.624;2024-02-21T10:36:19;102687;;;-0.3;48
49583;BME280;36329;48.816;44.624;2024-02-21T10:39:21;102689;;;-0.1;47.7
49583;BME280;36329;48.816;44.624;2024-02-21T10:42:26;102687;;;-0.2;47.3
49583;BME280;36329;48.816;44.624;2024-02-21T10:45:34;102682.99;;;0.5;45.8
49583;BME280;36329;48.816;44.624;2024-02-21T10:48:42;102680.01;;;0.1;46.9
49583;BME280;36329;48.816;44.624;2024-02-21T10:51:45;102681.99;;;0.7;45.5
49583;BME280;36329;48.816;44.624;2024-02-21T10:54:53;102679;;;-0.4;46.2
49583;BME280;36329;48.816;44.624;2024-02-21T10:57:58;102674;;;-0.4;47.5
49583;BME280;36329;48.816;44.624;2024-02-21T11:01:02;102669.99;;;0;46.7
49583;BME280;36329;48.816;44.624;2024-02-21T11:04:05;102667.01;;;0.6;46
49583;BME280;36329;48.816;44.624;2024-02-21T11:07:08;102667.01;;;0.2;45.3
49583;BME280;36329;48.816;44.624;2024-02-21T11:10:20;102661;;;0.3;45.3
49583;BME280;36329;48.816;44.624;2024-02-21T11:13:30;102671;;;0.8;45.2
49583;BME280;36329;48.816;44.624;2024-02-21T11:16:38;102664;;;0.3;45.4
49583;BME280;36329;48.816;44.624;2024-02-21T11:19:41;102665;;;-0.8;48
49583;BME280;36329;48.816;44.624;2024-02-21T11:22:43;102667.01;;;-0.7;48.2
49583;BME280;36329;48.816;44.624;2024-02-21T11:25:45;102667.01;;;-0.8;48.2
49583;BME280;36329;48.816;44.624;2024-02-21T11:28:56;102666;;;-0.9;48.1
49583;BME280;36329;48.816;44.624;2024-02-21T11:32:03;102655.01;;;-0.6;47.6
49583;BME280;36329;48.816;44.624;2024-02-21T11:35:06;102660;;;-0.8;47.6
49583;BME280;36329;48.816;44.624;2024-02-21T11:38:13;102666;;;-1;48.7
49583;BME280;36329;48.816;44.624;2024-02-21T11:41:15;102657.99;;;-1;47.7
49583;BME280;36329;48.816;44.624;2024-02-21T11:44:17;102656.99;;;-1;49.2
49583;BME280;36329;48.816;44.624;2024-02-21T11:47:19;102653;;;-0.7;48.4
49583;BME280;36329;48.816;44.624;2024-02-21T11:50:21;102661;;;-1.3;49.2
49583;BME280;36329;48.816;44.624;2024-02-21T11:53:23;102663;;;-1.2;49.8
49583;BME280;36329;48.816;44.624;2024-02-21T11:56:25;102657.99;;;-1.2;49.4
49583;BME280;36329;48.816;44.624;2024-02-21T11:59:30;102656.01;;;-1.4;50.3
49583;BME280;36329;48.816;44.624;2024-02-21T12:02:32;102659;;;-1.6;51.2
49583;BME280;36329;48.816;44.624;2024-02-21T12:05:35;102661;;;-1.9;51.7
49583;BME280;36329;48.816;44.624;2024-02-21T12:08:44;102656.01;;;-2;51.9
49583;BME280;36329;48.816;44.624;2024-02-21T12:11:57;102656.01;;;-1.8;52.6
49583;BME280;36329;48.816;44.624;2024-02-21T12:15:01;102657.99;;;-1.7;52.3
49583;BME280;36329;48.816;44.624;2024-02-21T12:18:04;102656.99;;;-2.1;52.8
49583;BME280;36329;48.816;44.624;2024-02-21T12:21:06;102655.01;;;-2.8;53.5
49583;BME280;36329;48.816;44.624;2024-02-21T12:24:12;102660;;;-3.2;55.7
49583;BME280;36329;48.816;44.624;2024-02-21T12:27:15;102660;;;-3.4;56.5
49583;BME280;36329;48.816;44.624;2024-02-21T12:30:17;102659;;;-3.7;57.9
49583;BME280;36329;48.816;44.624;2024-02-21T12:33:21;102654;;;-3.7;58.7
49583;BME280;36329;48.816;44.624;2024-02-21T12:36:23;102657.99;;;-3.5;58.8
49583;BME280;36329;48.816;44.624;2024-02-21T12:39:25;102662;;;-3.6;59
49583;BME280;36329;48.816;44.624;2024-02-21T12:42:28;102656.01;;;-3.7;59.4
49583;BME280;36329;48.816;44.624;2024-02-21T12:45:30;102664;;;-3.7;60.4
49583;BME280;36329;48.816;44.624;2024-02-21T12:48:32;102667.01;;;-3.9;60.8
49583;BME280;36329;48.816;44.624;2024-02-21T12:51:35;102672;;;-3.5;60.2
49583;BME280;36329;48.816;44.624;2024-02-21T12:54:38;102662;;;-3.8;60.1
49583;BME280;36329;48.816;44.624;2024-02-21T12:57:40;102661;;;-4.1;61.5
49583;BME280;36329;48.816;44.624;2024-02-21T13:00:42;102665;;;-3.7;60.7
49583;BME280;36329;48.816;44.624;2024-02-21T13:03:44;102660;;;-4.2;62
49583;BME280;36329;48.816;44.624;2024-02-21T13:06:46;102666;;;-4.4;63.1
49583;BME280;36329;48.816;44.624;2024-02-21T13:09:49;102666;;;-4.4;62.6
49583;BME280;36329;48.816;44.624;2024-02-21T13:12:51;102672;;;-4.5;63.2
49583;BME280;36329;48.816;44.624;2024-02-21T13:15:53;102671;;;-4.9;64.7
49583;BME280;36329;48.816;44.624;2024-02-21T13:18:55;102668.99;;;-4.6;65.5
49583;BME280;36329;48.816;44.624;2024-02-21T13:21:57;102668.99;;;-4.7;65.7
49583;BME280;36329;48.816;44.624;2024-02-21T13:24:59;102674;;;-4.2;64.9
49583;BME280;36329;48.816;44.624;2024-02-21T13:28:02;102669.99;;;-3.7;63.8
49583;BME280;36329;48.816;44.624;2024-02-21T13:31:05;102669.99;;;-3.7;61.7
49583;BME280;36329;48.816;44.624;2024-02-21T13:34:07;102668.99;;;-3.7;61.5
49583;BME280;36329;48.816;44.624;2024-02-21T13:37:09;102666;;;-4.2;62.4
49583;BME280;36329;48.816;44.624;2024-02-21T13:40:11;102677;;;-4.3;63.3
49583;BME280;36329;48.816;44.624;2024-02-21T13:43:14;102673;;;-4.7;64.6
49583;BME280;36329;48.816;44.624;2024-02-21T13:46:16;102673;;;-4.9;65.5
49583;BME280;36329;48.816;44.624;2024-02-21T13:49:18;102675;;;-5;66.1
49583;BME280;36329;48.816;44.624;2024-02-21T13:52:20;102675;;;-5.1;66.6
49583;BME280;36329;48.816;44.624;2024-02-21T13:55:22;102672;;;-5.3;68
49583;BME280;36329;48.816;44.624;2024-02-21T13:58:24;102676;;;-5.5;68.7
49583;BME280;36329;48.816;44.624;2024-02-21T14:01:26;102672;;;-5.5;68.7
49583;BME280;36329;48.816;44.624;2024-02-21T14:04:29;102677;;;-5.5;69.2
49583;BME280;36329;48.816;44.624;2024-02-21T14:07:31;102669.99;;;-5.7;70.3
49583;BME280;36329;48.816;44.624;2024-02-21T14:10:33;102673;;;-5.4;71.7
49583;BME280;36329;48.816;44.624;2024-02-21T14:13:35;102668.99;;;-4.9;69.1
49583;BME280;36329;48.816;44.624;2024-02-21T14:16:37;102676;;;-5;68
49583;BME280;36329;48.816;44.624;2024-02-21T14:19:40;102674;;;-4.8;68.5
49583;BME280;36329;48.816;44.624;2024-02-21T14:22:42;102669.99;;;-5.1;67.7
49583;BME280;36329;48.816;44.624;2024-02-21T14:25:44;102674;;;-5.1;68.3
49583;BME280;36329;48.816;44.624;2024-02-21T14:28:47;102669.99;;;-5.1;68.5
49583;BME280;36329;48.816;44.624;2024-02-21T14:31:49;102667.01;;;-5.1;68.4
49583;BME280;36329;48.816;44.624;2024-02-21T14:34:52;102668.99;;;-4.9;67.7
49583;BME280;36329;48.816;44.624;2024-02-21T14:37:54;102672;;;-5.3;68.5
49583;BME280;36329;48.816;44.624;2024-02-21T14:40:57;102674;;;-5.6;68.8
49583;BME280;36329;48.816;44.624;2024-02-21T14:43:59;102679;;;-5.6;69.9
49583;BME280;36329;48.816;44.624;2024-02-21T14:47:01;102680.01;;;-5.6;69.5
49583;BME280;36329;48.816;44.624;2024-02-21T14:50:03;102681.99;;;-5.7;69.9
49583;BME280;36329;48.816;44.624;2024-02-21T14:53:06;102680.01;;;-5.8;70.6
49583;BME280;36329;48.816;44.624;2024-02-21T14:56:12;102677;;;-5.8;70.7
49583;BME280;36329;48.816;44.624;2024-02-21T14:59:15;102669.99;;;-6.1;71.6
49583;BME280;36329;48.816;44.624;2024-02-21T15:02:17;102672;;;-6;71.7
49583;BME280;36329;48.816;44.624;2024-02-21T15:05:19;102679;;;-6;71.7
49583;BME280;36329;48.816;44.624;2024-02-21T15:08:21;102681.01;;;-5.7;71.5
49583;BME280;36329;48.816;44.624;2024-02-21T15:11:24;102686;;;-5.8;70.7
49583;BME280;36329;48.816;44.624;2024-02-21T15:14:26;102691;;;-5.9;71.1
49583;BME280;36329;48.816;44.624;2024-02-21T15:17:28;102684;;;-6;73
49583;BME280;36329;48.816;44.624;2024-02-21T15:20:30;102688;;;-5.8;72.4
49583;BME280;36329;48.816;44.624;2024-02-21T15:23:32;102692.01;;;-5.5;71.5
49583;BME280;36329;48.816;44.624;2024-02-21T15:26:34;102701;;;-5.4;69.4
49583;BME280;36329;48.816;44.624;2024-02-21T15:29:37;102701;;;-5.9;70.5
49583;BME280;36329;48.816;44.624;2024-02-21T15:32:39;102705.01;;;-6;71.5
49583;BME280;36329;48.816;44.624;2024-02-21T15:35:41;102707.99;;;-6.1;71.8
49583;BME280;36329;48.816;44.624;2024-02-21T15:38:44;102704;;;-6.1;71.5
49583;BME280;36329;48.816;44.624;2024-02-21T15:41:47;102706.99;;;-6;72
49583;BME280;36329;48.816;44.624;2024-02-21T15:44:49;102702;;;-5.9;70.9
49583;BME280;36329;48.816;44.624;2024-02-21T15:47:51;102700;;;-6;70.8
49583;BME280;36329;48.816;44.624;2024-02-21T15:50:53;102702;;;-6.6;72.8
49583;BME280;36329;48.816;44.624;2024-02-21T15:53:55;102706.01;;;-6.5;74.9
49583;BME280;36329;48.816;44.624;2024-02-21T15:56:57;102706.01;;;-6.5;74.9
49583;BME280;36329;48.816;44.624;2024-02-21T16:00:00;102697;;;-6.6;74.8
49583;BME280;36329;48.816;44.624;2024-02-21T16:03:02;102697;;;-6.4;74.4
49583;BME280;36329;48.816;44.624;2024-02-21T16:06:05;102698;;;-6.5;73.8
49583;BME280;36329;48.816;44.624;2024-02-21T16:09:07;102704;;;-6.2;74.2
49583;BME280;36329;48.816;44.624;2024-02-21T16:12:09;102704;;;-6.4;73.2
49583;BME280;36329;48.816;44.624;2024-02-21T16:15:11;102697;;;-6.5;75.1
49583;BME280;36329;48.816;44.624;2024-02-21T16:18:13;102703;;;-6.4;76.5
49583;BME280;36329;48.816;44.624;2024-02-21T16:21:15;102704;;;-6.4;75.1
49583;BME280;36329;48.816;44.624;2024-02-21T16:24:17;102699;;;-6.2;75.5
49583;BME280;36329;48.816;44.624;2024-02-21T16:27:20;102706.01;;;-6;73.6
49583;BME280;36329;48.816;44.624;2024-02-21T16:30:22;102704;;;-5.8;72.7
49583;BME280;36329;48.816;44.624;2024-02-21T16:33:25;102709;;;-5.6;71.6
49583;BME280;36329;48.816;44.624;2024-02-21T16:36:27;102705.01;;;-5.7;70.9
49583;BME280;36329;48.816;44.624;2024-02-21T16:39:29;102700;;;-6;71.4